createdAt,value
2018-03-07T00:00:42.480Z,2.30
2018-03-07T00:03:11.906Z,2.30
2018-03-07T00:05:40.567Z,2.20
2018-03-07T00:08:10.002Z,2.30
2018-03-07T00:10:38.860Z,2.30
2018-03-07T00:13:08.300Z,2.30
2018-03-07T00:15:36.974Z,2.30
2018-03-07T00:18:05.639Z,2.30
2018-03-07T00:20:35.077Z,2.30
2018-03-07T00:23:03.742Z,2.20
2018-03-07T00:25:32.417Z,2.30
2018-03-07T00:28:01.858Z,2.20
2018-03-07T00:30:30.528Z,2.20
2018-03-07T00:32:59.198Z,2.20
2018-03-07T00:35:28.623Z,2.20
2018-03-07T00:37:57.291Z,2.20
2018-03-07T00:40:26.726Z,2.30
2018-03-07T00:42:55.394Z,2.30
2018-03-07T00:45:24.060Z,2.20
2018-03-07T00:47:53.570Z,2.20
2018-03-07T00:50:22.997Z,2.20
2018-03-07T00:52:51.671Z,2.20
2018-03-07T00:55:20.356Z,2.20
2018-03-07T00:57:49.031Z,2.20
2018-03-07T01:00:18.462Z,2.30
2018-03-07T01:02:47.130Z,2.30
2018-03-07T01:05:16.638Z,2.30
2018-03-07T01:07:45.387Z,2.20
2018-03-07T01:10:14.138Z,2.20
2018-03-07T01:12:43.722Z,2.20
2018-03-07T01:15:12.472Z,2.30
2018-03-07T01:17:41.230Z,2.30
2018-03-07T01:20:09.987Z,2.20
2018-03-07T01:22:38.741Z,2.30
2018-03-07T01:25:07.493Z,2.30
2018-03-07T01:27:36.259Z,2.30
2018-03-07T01:30:04.352Z,2.30
2018-03-07T01:32:33.211Z,2.30
2018-03-07T01:35:01.968Z,2.30
2018-03-07T01:37:30.774Z,2.20
2018-03-07T01:40:00.297Z,2.20
2018-03-07T01:42:28.868Z,2.20
2018-03-07T01:44:58.386Z,2.30
2018-03-07T01:47:27.147Z,2.30
2018-03-07T01:49:55.908Z,2.30
2018-03-07T01:52:24.663Z,2.30
2018-03-07T01:54:53.425Z,2.30
2018-03-07T01:57:22.959Z,2.30
2018-03-07T01:59:51.711Z,2.30
2018-03-07T02:02:20.902Z,2.30
2018-03-07T02:04:49.657Z,2.30
2018-03-07T02:07:18.403Z,2.30
2018-03-07T02:09:47.163Z,2.30
2018-03-07T02:12:15.928Z,2.40
2018-03-07T02:14:44.692Z,2.30
2018-03-07T02:17:13.447Z,2.40
2018-03-07T02:19:42.958Z,2.40
2018-03-07T02:22:12.471Z,2.40
2018-03-07T02:24:41.988Z,2.40
2018-03-07T02:27:10.743Z,2.40
2018-03-07T02:29:39.500Z,2.40
2018-03-07T02:32:08.255Z,2.40
2018-03-07T02:34:37.004Z,2.40
2018-03-07T02:37:05.768Z,2.40
2018-03-07T02:39:34.539Z,2.40
2018-03-07T02:42:03.518Z,2.40
2018-03-07T02:44:32.275Z,2.30
2018-03-07T02:47:01.796Z,2.30
2018-03-07T02:49:31.347Z,2.30
2018-03-07T02:52:00.103Z,2.30
2018-03-07T02:54:28.852Z,2.30
2018-03-07T02:56:57.630Z,2.30
2018-03-07T02:59:26.391Z,2.30
2018-03-07T03:01:55.148Z,2.30
2018-03-07T03:04:24.666Z,2.30
2018-03-07T03:06:53.436Z,2.20
2018-03-07T03:09:22.953Z,2.30
2018-03-07T03:11:52.463Z,2.30
2018-03-07T03:14:21.210Z,2.30
2018-03-07T03:16:49.966Z,2.30
2018-03-07T03:19:18.721Z,2.30
2018-03-07T03:21:48.235Z,2.30
2018-03-07T03:24:16.992Z,2.30
2018-03-07T03:26:45.790Z,2.30
2018-03-07T03:29:14.714Z,2.30
2018-03-07T03:31:43.464Z,2.30
2018-03-07T03:34:12.221Z,2.30
2018-03-07T03:36:40.969Z,2.20
2018-03-07T03:39:10.475Z,2.20
2018-03-07T03:41:39.231Z,2.20
2018-03-07T03:44:07.978Z,2.20
2018-03-07T03:46:36.726Z,2.20
2018-03-07T03:49:06.246Z,2.20
2018-03-07T03:51:34.999Z,2.20
2018-03-07T03:54:03.746Z,2.20
2018-03-07T03:56:32.494Z,2.20
2018-03-07T03:59:02.013Z,2.10
2018-03-07T04:01:31.552Z,2.20
2018-03-07T04:04:00.302Z,2.20
2018-03-07T04:06:29.841Z,2.20
2018-03-07T04:08:58.594Z,2.20
2018-03-07T04:11:28.144Z,2.10
2018-03-07T04:13:56.899Z,2.10
2018-03-07T04:16:26.420Z,2.10
2018-03-07T04:18:55.184Z,2.10
2018-03-07T04:21:24.727Z,2.10
2018-03-07T04:23:53.478Z,2.10
2018-03-07T04:26:22.230Z,2.10
2018-03-07T04:28:50.971Z,2.10
2018-03-07T04:31:19.732Z,2.10
2018-03-07T04:33:48.516Z,2.10
2018-03-07T04:36:16.939Z,2.10
2018-03-07T04:38:45.787Z,2.10
2018-03-07T04:41:14.574Z,2.10
2018-03-07T04:43:43.327Z,2.10
2018-03-07T04:46:12.104Z,2.10
2018-03-07T04:48:40.854Z,2.10
2018-03-07T04:51:10.386Z,2.10
2018-03-07T04:53:39.145Z,2.10
2018-03-07T04:56:07.898Z,2.10
2018-03-07T04:58:36.658Z,2.10
2018-03-07T05:01:05.403Z,2.10
2018-03-07T05:03:34.165Z,2.10
2018-03-07T05:06:02.923Z,2.00
2018-03-07T05:08:31.667Z,2.00
2018-03-07T05:11:00.414Z,2.00
2018-03-07T05:13:29.163Z,2.10
2018-03-07T05:15:58.695Z,2.10
2018-03-07T05:18:27.448Z,2.10
2018-03-07T05:20:56.203Z,2.10
2018-03-07T05:23:24.954Z,2.10
2018-03-07T05:25:53.803Z,2.10
2018-03-07T05:28:22.559Z,2.10
2018-03-07T05:30:51.302Z,2.10
2018-03-07T05:33:20.835Z,2.00
2018-03-07T05:35:50.355Z,2.00
2018-03-07T05:38:19.121Z,2.00
2018-03-07T05:40:48.266Z,2.10
2018-03-07T05:43:17.796Z,2.10
2018-03-07T05:45:46.554Z,2.00
2018-03-07T05:48:15.316Z,2.10
2018-03-07T05:50:44.075Z,2.10
2018-03-07T05:53:13.607Z,2.00
2018-03-07T05:55:42.363Z,2.00
2018-03-07T05:58:11.119Z,2.00
2018-03-07T06:00:39.888Z,2.10
2018-03-07T06:03:08.667Z,2.10
2018-03-07T06:05:37.671Z,2.10
2018-03-07T06:08:07.238Z,2.10
2018-03-07T06:10:38.662Z,2.10
2018-03-07T06:13:07.422Z,2.10
2018-03-07T06:15:36.187Z,2.10
2018-03-07T06:18:04.624Z,2.20
2018-03-07T06:20:33.393Z,2.10
2018-03-07T06:23:03.079Z,2.10
2018-03-07T06:25:31.838Z,2.10
2018-03-07T06:28:01.777Z,2.20
2018-03-07T06:30:30.547Z,2.10
2018-03-07T06:33:00.971Z,2.20
2018-03-07T06:35:30.500Z,2.20
2018-03-07T06:37:59.262Z,2.20
2018-03-07T06:40:28.775Z,2.20
2018-03-07T06:42:58.300Z,2.30
2018-03-07T06:45:27.096Z,2.30
2018-03-07T06:47:56.763Z,2.30
2018-03-07T06:50:25.531Z,2.30
2018-03-07T06:52:54.306Z,2.30
2018-03-07T06:55:23.068Z,2.30
2018-03-07T06:57:51.835Z,2.30
2018-03-07T07:00:21.366Z,2.30
2018-03-07T07:02:50.131Z,2.30
2018-03-07T07:05:19.663Z,2.30
2018-03-07T07:07:48.423Z,2.30
2018-03-07T07:10:18.163Z,2.40
2018-03-07T07:12:46.923Z,2.40
2018-03-07T07:15:16.445Z,2.40
2018-03-07T07:17:45.195Z,2.40
2018-03-07T07:20:13.965Z,2.40
2018-03-07T07:22:42.727Z,2.40
2018-03-07T07:25:11.716Z,2.40
2018-03-07T07:27:40.471Z,2.40
2018-03-07T07:30:10.001Z,2.40
2018-03-07T07:32:38.772Z,2.40
2018-03-07T07:35:08.304Z,2.40
2018-03-07T07:37:36.867Z,2.40
2018-03-07T07:40:06.613Z,2.40
2018-03-07T07:42:35.364Z,2.40
2018-03-07T07:45:04.232Z,2.40
2018-03-07T07:47:32.979Z,2.40
2018-03-07T07:50:01.551Z,2.40
2018-03-07T07:52:30.123Z,2.40
2018-03-07T07:54:59.647Z,2.40
2018-03-07T07:57:28.404Z,2.40
2018-03-07T07:59:58.033Z,2.40
2018-03-07T08:02:26.786Z,2.40
2018-03-07T08:04:55.540Z,2.40
2018-03-07T08:07:24.303Z,2.40
2018-03-07T08:09:53.056Z,2.40
2018-03-07T08:12:21.808Z,2.40
2018-03-07T08:14:50.565Z,2.40
2018-03-07T08:17:19.324Z,2.40
2018-03-07T08:19:48.106Z,2.50
2018-03-07T08:22:16.851Z,2.50
2018-03-07T08:24:45.619Z,2.50
2018-03-07T08:27:14.377Z,2.50
2018-03-07T08:29:43.132Z,2.60
2018-03-07T08:32:12.407Z,2.60
2018-03-07T08:34:41.516Z,2.60
2018-03-07T08:37:10.264Z,2.70
2018-03-07T08:39:39.447Z,2.60
2018-03-07T08:42:08.200Z,2.60
2018-03-07T08:44:36.949Z,2.70
2018-03-07T08:47:06.135Z,2.70
2018-03-07T08:49:35.647Z,2.80
2018-03-07T08:52:05.165Z,2.80
2018-03-07T08:54:34.907Z,2.80
2018-03-07T08:57:03.672Z,2.80
2018-03-07T08:59:32.999Z,2.80
2018-03-07T09:02:01.758Z,2.80
2018-03-07T09:04:30.752Z,2.80
2018-03-07T09:06:59.504Z,2.90
2018-03-07T09:09:28.269Z,2.90
2018-03-07T09:11:57.031Z,2.90
2018-03-07T09:14:25.873Z,2.90
2018-03-07T09:16:54.623Z,3.00
2018-03-07T09:19:23.472Z,3.00
2018-03-07T09:21:53.003Z,3.10
2018-03-07T09:24:22.579Z,3.10
2018-03-07T09:26:51.334Z,3.20
2018-03-07T09:29:20.098Z,3.20
2018-03-07T09:31:48.847Z,3.20
2018-03-07T09:34:17.605Z,3.30
2018-03-07T09:36:51.711Z,3.20
2018-03-07T09:39:20.838Z,3.20
2018-03-07T09:41:49.595Z,3.30
2018-03-07T09:44:18.355Z,3.30
2018-03-07T09:46:47.115Z,3.40
2018-03-07T09:49:16.470Z,3.40
2018-03-07T09:51:45.225Z,3.40
2018-03-07T09:54:13.995Z,3.40
2018-03-07T09:56:43.535Z,3.40
2018-03-07T09:59:13.673Z,3.40
2018-03-07T10:01:42.428Z,3.40
2018-03-07T10:04:11.943Z,3.40
2018-03-07T10:06:40.691Z,3.40
2018-03-07T10:09:09.459Z,3.50
2018-03-07T10:11:38.215Z,3.50
2018-03-07T10:14:06.967Z,3.60
2018-03-07T10:16:35.776Z,3.70
2018-03-07T10:19:04.709Z,3.80
2018-03-07T10:21:33.509Z,3.90
2018-03-07T10:24:02.264Z,4.00
2018-03-07T10:26:31.028Z,4.10
2018-03-07T10:29:00.556Z,4.40
2018-03-07T10:31:29.320Z,4.40
2018-03-07T10:33:58.845Z,4.50
2018-03-07T10:36:28.363Z,4.70
2018-03-07T10:38:57.133Z,4.60
2018-03-07T10:41:26.676Z,4.70
2018-03-07T10:43:55.445Z,4.70
2018-03-07T10:46:24.209Z,4.80
2018-03-07T10:48:53.940Z,4.80
2018-03-07T10:51:22.695Z,4.80
2018-03-07T10:53:51.451Z,4.90
2018-03-07T10:56:20.826Z,4.90
2018-03-07T10:58:49.587Z,4.90
2018-03-07T11:01:19.117Z,4.90
2018-03-07T11:03:47.876Z,4.90
2018-03-07T11:06:16.631Z,4.90
2018-03-07T11:08:45.397Z,4.90
2018-03-07T11:11:14.168Z,4.90
2018-03-07T11:13:42.931Z,4.90
2018-03-07T11:16:11.688Z,4.90
2018-03-07T11:18:40.440Z,4.80
2018-03-07T11:21:09.806Z,4.80
2018-03-07T11:23:39.444Z,4.80
2018-03-07T11:26:08.202Z,4.80
2018-03-07T11:28:36.968Z,4.80
2018-03-07T11:31:05.625Z,4.80
2018-03-07T11:33:34.465Z,4.70
2018-03-07T11:36:03.221Z,5.00
2018-03-07T11:38:32.782Z,4.90
2018-03-07T11:41:03.020Z,4.90
2018-03-07T11:43:31.801Z,4.90
2018-03-07T11:46:00.555Z,4.80
2018-03-07T11:48:29.357Z,4.70
2018-03-07T11:50:59.810Z,4.70
2018-03-07T11:53:28.581Z,4.60
2018-03-07T11:55:57.790Z,4.70
2018-03-07T11:58:27.306Z,4.70
2018-03-07T12:00:55.740Z,4.70
2018-03-07T12:03:24.752Z,4.70
2018-03-07T12:05:53.530Z,4.70
2018-03-07T12:08:22.297Z,4.70
2018-03-07T12:10:51.056Z,4.70
2018-03-07T12:13:19.814Z,4.70
2018-03-07T12:15:48.597Z,4.70
2018-03-07T12:18:24.348Z,4.70
2018-03-07T12:20:53.176Z,4.70
2018-03-07T13:39:00.504Z,5.20
2018-03-07T13:41:32.750Z,5.20
2018-03-07T13:57:58.585Z,7.70
2018-03-07T14:00:27.332Z,8.20
2018-03-07T14:02:56.107Z,8.40
2018-03-07T14:05:25.588Z,7.80
2018-03-07T14:08:02.399Z,7.20
2018-03-07T15:43:33.777Z,7.00
2018-03-07T15:46:02.574Z,11.00
2018-03-07T15:48:31.344Z,11.20
2018-03-07T15:51:00.427Z,11.00
2018-03-07T15:53:29.191Z,10.80
2018-03-07T15:55:58.903Z,10.40
2018-03-07T15:58:28.432Z,10.20
2018-03-07T16:00:57.200Z,10.20
2018-03-07T16:03:26.409Z,9.70
2018-03-07T16:05:55.205Z,9.70
2018-03-07T16:08:30.462Z,9.60
2018-03-07T16:11:00.147Z,9.50
2018-03-07T16:13:29.794Z,9.20
2018-03-07T16:15:58.566Z,9.10
2018-03-07T16:18:27.379Z,9.10
2018-03-07T16:20:57.397Z,9.00
2018-03-07T16:23:26.583Z,8.90
2018-03-07T16:25:55.386Z,8.80
2018-03-07T16:28:23.858Z,8.80
2018-03-07T16:33:47.238Z,8.70
2018-03-07T16:36:33.432Z,8.60
2018-03-07T16:41:54.254Z,8.40
2018-03-07T16:44:23.020Z,8.40
2018-03-07T16:46:52.544Z,8.30
2018-03-07T16:49:21.889Z,8.30
2018-03-07T16:51:51.181Z,8.40
2018-03-07T16:54:20.182Z,8.30
2018-03-07T16:56:48.952Z,8.20
2018-03-07T16:59:17.747Z,8.20
2018-03-07T17:01:46.197Z,8.10
2018-03-07T17:04:14.994Z,8.10
2018-03-07T17:06:43.768Z,8.10
2018-03-07T17:09:12.949Z,8.10
2018-03-07T17:11:41.764Z,8.10
2018-03-07T18:00:52.399Z,8.10
2018-03-07T18:03:21.164Z,7.90
2018-03-07T18:05:49.931Z,7.80
2018-03-07T18:08:18.704Z,7.80
2018-03-07T18:10:48.757Z,7.80
2018-03-07T18:13:17.635Z,7.80
2018-03-07T18:15:46.402Z,7.80
2018-03-07T18:18:15.934Z,7.90
2018-03-07T18:20:44.707Z,7.80
2018-03-07T18:23:13.482Z,7.90
2018-03-07T18:25:41.904Z,7.80
2018-03-07T18:31:03.410Z,7.80
2018-03-07T18:33:33.463Z,7.70
2018-03-07T18:36:03.513Z,7.70
2018-03-07T18:38:39.162Z,7.70
2018-03-07T18:41:13.570Z,7.70
2018-03-07T18:51:25.812Z,7.90
2018-03-07T18:53:54.592Z,7.80
2018-03-07T18:56:24.116Z,7.90
2018-03-07T18:58:54.655Z,7.80
2018-03-07T19:01:23.405Z,7.80
2018-03-07T19:03:52.936Z,8.00
2018-03-07T19:06:21.700Z,8.00
2018-03-07T19:08:51.454Z,7.80
2018-03-07T19:11:20.203Z,7.80
2018-03-07T19:13:51.231Z,7.80
2018-03-07T19:16:20.403Z,7.70
2018-03-07T19:18:49.786Z,7.70
2018-03-07T19:21:18.536Z,7.70
2018-03-07T19:23:47.876Z,7.80
2018-03-07T19:26:16.820Z,7.80
2018-03-07T19:28:46.358Z,7.80
2018-03-07T19:31:16.594Z,7.80
2018-03-07T19:33:46.317Z,7.80
2018-03-07T19:36:15.081Z,7.70
2018-03-07T19:38:44.719Z,7.80
2018-03-07T19:41:13.872Z,7.90
2018-03-07T19:43:49.972Z,7.70
2018-03-07T19:46:18.744Z,7.70
2018-03-07T19:48:47.708Z,7.80
2018-03-07T19:51:17.233Z,7.80
2018-03-07T19:53:46.713Z,7.80
2018-03-07T19:56:15.484Z,7.80
2018-03-07T19:58:44.960Z,7.70
2018-03-07T20:01:14.647Z,7.70
2018-03-07T20:03:43.414Z,7.70
2018-03-07T20:06:12.944Z,7.70
2018-03-07T20:08:43.040Z,7.70
2018-03-07T20:11:13.269Z,7.70
2018-03-07T20:13:42.881Z,7.60
2018-03-07T20:16:11.638Z,7.60
2018-03-07T20:22:12.138Z,7.70
2018-03-07T20:24:40.889Z,7.70
2018-03-07T20:27:09.642Z,7.60
2018-03-07T20:29:39.204Z,7.60
2018-03-07T20:32:08.735Z,7.60
2018-03-07T20:34:37.731Z,7.60
2018-03-07T20:37:06.493Z,7.70
2018-03-07T20:39:35.998Z,7.80
2018-03-07T20:42:05.311Z,7.70
2018-03-07T20:44:34.064Z,7.70
2018-03-07T20:47:02.817Z,7.70
2018-03-07T20:49:31.577Z,7.70
2018-03-07T20:52:00.352Z,7.60
2018-03-07T20:54:31.040Z,7.60
2018-03-07T20:56:59.808Z,7.60
2018-03-07T20:59:31.743Z,7.60
2018-03-07T21:02:01.895Z,7.50
2018-03-07T21:04:33.426Z,7.50
2018-03-07T21:07:05.899Z,7.50
2018-03-07T21:09:35.228Z,7.60
2018-03-07T21:12:04.011Z,7.50
2018-03-07T21:14:32.768Z,7.60
2018-03-07T21:17:02.290Z,7.50
2018-03-07T21:19:30.717Z,7.50
2018-03-07T21:22:00.088Z,7.50
2018-03-07T21:24:28.841Z,7.50
2018-03-07T21:26:59.898Z,7.60
2018-03-07T21:29:29.416Z,7.60
2018-03-07T21:32:03.561Z,7.60
2018-03-07T21:34:32.320Z,7.60
2018-03-07T21:37:01.621Z,7.60
2018-03-07T21:39:35.740Z,7.60
2018-03-07T21:42:04.783Z,7.60
2018-03-07T21:44:35.572Z,7.50
2018-03-07T21:47:05.253Z,7.50
2018-03-07T21:49:41.974Z,7.50
2018-03-07T21:52:13.499Z,7.70
2018-03-07T21:54:42.872Z,7.70
2018-03-07T21:57:13.002Z,7.60
2018-03-07T21:59:42.520Z,7.50
2018-03-07T22:02:11.284Z,7.50
2018-03-07T22:04:40.022Z,7.50
2018-03-07T22:07:08.769Z,7.50
2018-03-07T22:09:38.388Z,7.50
2018-03-07T22:12:07.911Z,7.40
2018-03-07T22:14:36.663Z,7.40
2018-03-07T22:17:05.408Z,7.40
2018-03-07T22:19:34.156Z,7.30
2018-03-07T22:22:03.673Z,7.20
2018-03-07T22:24:32.862Z,7.10
2018-03-07T22:27:01.648Z,7.10
2018-03-07T22:29:30.763Z,7.10
2018-03-07T22:31:59.551Z,7.00
2018-03-07T22:34:28.293Z,6.90
2018-03-07T22:36:59.045Z,6.90
2018-03-07T22:39:27.787Z,6.90
2018-03-07T22:41:56.554Z,6.80
2018-03-07T22:44:25.146Z,6.70
2018-03-07T22:46:54.851Z,6.60
2018-03-07T22:49:23.601Z,6.60
2018-03-07T22:51:52.356Z,6.60
2018-03-07T22:54:21.112Z,6.50
2018-03-07T22:56:49.880Z,6.60
2018-03-07T22:59:18.620Z,6.50
2018-03-07T23:01:48.118Z,6.40
2018-03-07T23:04:16.857Z,6.40
2018-03-07T23:06:45.606Z,6.40
2018-03-07T23:09:14.599Z,6.30
2018-03-07T23:11:43.768Z,6.30
2018-03-07T23:14:12.514Z,6.20
2018-03-07T23:16:41.268Z,6.20
2018-03-07T23:19:10.039Z,6.20
2018-03-07T23:21:38.788Z,6.10
2018-03-07T23:24:07.528Z,6.00
2018-03-07T23:26:36.291Z,6.00
2018-03-07T23:29:05.801Z,5.90
2018-03-07T23:31:34.554Z,5.80
2018-03-07T23:34:03.304Z,5.80
2018-03-07T23:36:32.051Z,5.80
2018-03-07T23:39:01.672Z,5.90
2018-03-07T23:41:31.201Z,5.90
2018-03-07T23:43:59.969Z,5.90
2018-03-07T23:46:34.115Z,5.80
2018-03-07T23:49:03.776Z,5.80
2018-03-07T23:51:33.296Z,5.80
2018-03-07T23:54:02.807Z,5.80
2018-03-07T23:56:31.558Z,5.80
2018-03-07T23:59:00.298Z,5.80
